sensor_id;sensor_type;location;lat;lon;timestamp;P1;durP1;ratioP1;P2;durP2;ratioP2
60241;SDS011;46103;52.076;113.488;2022-09-09T00:09:47;31.80;;;13.50;;
60241;SDS011;46103;52.076;113.488;2022-09-09T00:13:16;37.80;;;14.93;;
60241;SDS011;46103;52.076;113.488;2022-09-09T00:16:24;33.72;;;13.82;;
60241;SDS011;46103;52.076;113.488;2022-09-09T00:19:48;28.52;;;13.27;;
60241;SDS011;46103;52.076;113.488;2022-09-09T00:22:57;40.65;;;14.85;;
60241;SDS011;46103;52.076;113.488;2022-09-09T00:33:01;29.52;;;12.07;;
60241;SDS011;46103;52.076;113.488;2022-09-09T00:36:17;27.95;;;11.65;;
60241;SDS011;46103;52.076;113.488;2022-09-09T00:42:41;17.55;;;10.05;;
60241;SDS011;46103;52.076;113.488;2022-09-09T00:56:16;29.98;;;12.05;;
60241;SDS011;46103;52.076;113.488;2022-09-09T00:59:37;36.55;;;12.80;;
60241;SDS011;46103;52.076;113.488;2022-09-09T01:06:34;31.90;;;13.50;;
60241;SDS011;46103;52.076;113.488;2022-09-09T01:09:45;26.30;;;11.38;;
60241;SDS011;46103;52.076;113.488;2022-09-09T01:13:04;36.03;;;13.43;;
60241;SDS011;46103;52.076;113.488;2022-09-09T01:16:17;34.13;;;12.77;;
60241;SDS011;46103;52.076;113.488;2022-09-09T01:19:27;27.98;;;12.25;;
60241;SDS011;46103;52.076;113.488;2022-09-09T01:26:25;27.33;;;11.10;;
60241;SDS011;46103;52.076;113.488;2022-09-09T01:29:43;22.55;;;11.18;;
60241;SDS011;46103;52.076;113.488;2022-09-09T01:32:50;25.40;;;10.20;;
60241;SDS011;46103;52.076;113.488;2022-09-09T01:36:02;24.50;;;11.30;;
60241;SDS011;46103;52.076;113.488;2022-09-09T01:39:19;19.85;;;10.02;;
60241;SDS011;46103;52.076;113.488;2022-09-09T01:42:31;22.52;;;9.70;;
60241;SDS011;46103;52.076;113.488;2022-09-09T01:45:36;24.35;;;11.85;;
60241;SDS011;46103;52.076;113.488;2022-09-09T01:48:41;17.83;;;9.32;;
60241;SDS011;46103;52.076;113.488;2022-09-09T01:51:48;16.83;;;8.88;;
60241;SDS011;46103;52.076;113.488;2022-09-09T01:54:59;22.23;;;8.48;;
60241;SDS011;46103;52.076;113.488;2022-09-09T01:58:18;21.65;;;9.07;;
60241;SDS011;46103;52.076;113.488;2022-09-09T02:01:51;18.88;;;8.98;;
60241;SDS011;46103;52.076;113.488;2022-09-09T02:11:30;23.67;;;8.63;;
60241;SDS011;46103;52.076;113.488;2022-09-09T02:14:41;23.33;;;9.32;;
60241;SDS011;46103;52.076;113.488;2022-09-09T02:17:50;29.83;;;9.20;;
60241;SDS011;46103;52.076;113.488;2022-09-09T02:20:56;25.15;;;8.88;;
60241;SDS011;46103;52.076;113.488;2022-09-09T02:24:03;25.00;;;9.57;;
60241;SDS011;46103;52.076;113.488;2022-09-09T02:27:19;17.17;;;8.13;;
60241;SDS011;46103;52.076;113.488;2022-09-09T02:30:26;18.38;;;8.00;;
60241;SDS011;46103;52.076;113.488;2022-09-09T02:33:34;18.73;;;8.45;;
60241;SDS011;46103;52.076;113.488;2022-09-09T02:36:43;20.00;;;8.82;;
60241;SDS011;46103;52.076;113.488;2022-09-09T02:39:49;18.52;;;8.25;;
60241;SDS011;46103;52.076;113.488;2022-09-09T02:42:55;25.33;;;9.40;;
60241;SDS011;46103;52.076;113.488;2022-09-09T02:46:03;20.67;;;8.95;;
60241;SDS011;46103;52.076;113.488;2022-09-09T02:49:27;17.40;;;9.23;;
60241;SDS011;46103;52.076;113.488;2022-09-09T02:56:25;21.15;;;8.90;;
60241;SDS011;46103;52.076;113.488;2022-09-09T03:02:37;31.48;;;9.68;;
60241;SDS011;46103;52.076;113.488;2022-09-09T03:05:42;30.67;;;9.38;;
60241;SDS011;46103;52.076;113.488;2022-09-09T03:08:48;31.17;;;10.23;;
60241;SDS011;46103;52.076;113.488;2022-09-09T03:11:59;38.83;;;10.35;;
60241;SDS011;46103;52.076;113.488;2022-09-09T03:15:05;45.50;;;11.20;;
60241;SDS011;46103;52.076;113.488;2022-09-09T03:18:10;40.38;;;11.73;;
60241;SDS011;46103;52.076;113.488;2022-09-09T03:21:14;50.80;;;12.23;;
60241;SDS011;46103;52.076;113.488;2022-09-09T03:24:19;45.45;;;12.88;;
60241;SDS011;46103;52.076;113.488;2022-09-09T03:27:23;59.30;;;14.25;;
60241;SDS011;46103;52.076;113.488;2022-09-09T03:30:27;65.55;;;14.68;;
60241;SDS011;46103;52.076;113.488;2022-09-09T03:33:32;58.72;;;14.57;;
60241;SDS011;46103;52.076;113.488;2022-09-09T03:36:37;73.55;;;15.48;;
60241;SDS011;46103;52.076;113.488;2022-09-09T03:39:41;68.35;;;14.10;;
60241;SDS011;46103;52.076;113.488;2022-09-09T03:42:45;76.07;;;16.13;;
60241;SDS011;46103;52.076;113.488;2022-09-09T03:45:51;55.92;;;14.70;;
60241;SDS011;46103;52.076;113.488;2022-09-09T03:48:55;55.22;;;13.20;;
60241;SDS011;46103;52.076;113.488;2022-09-09T03:52:00;55.80;;;13.77;;
60241;SDS011;46103;52.076;113.488;2022-09-09T03:55:05;64.18;;;14.27;;
60241;SDS011;46103;52.076;113.488;2022-09-09T03:58:12;51.88;;;13.43;;
60241;SDS011;46103;52.076;113.488;2022-09-09T04:01:18;52.92;;;13.23;;
60241;SDS011;46103;52.076;113.488;2022-09-09T04:04:22;44.90;;;11.32;;
60241;SDS011;46103;52.076;113.488;2022-09-09T04:07:26;36.72;;;10.55;;
60241;SDS011;46103;52.076;113.488;2022-09-09T04:10:30;38.40;;;10.75;;
60241;SDS011;46103;52.076;113.488;2022-09-09T04:13:34;38.97;;;9.82;;
60241;SDS011;46103;52.076;113.488;2022-09-09T04:16:44;37.08;;;9.95;;
60241;SDS011;46103;52.076;113.488;2022-09-09T04:19:49;46.80;;;10.63;;
60241;SDS011;46103;52.076;113.488;2022-09-09T04:22:53;38.13;;;10.23;;
60241;SDS011;46103;52.076;113.488;2022-09-09T04:25:59;29.63;;;10.90;;
60241;SDS011;46103;52.076;113.488;2022-09-09T04:29:06;32.45;;;10.35;;
60241;SDS011;46103;52.076;113.488;2022-09-09T04:32:10;31.15;;;8.93;;
60241;SDS011;46103;52.076;113.488;2022-09-09T04:35:15;27.25;;;8.88;;
60241;SDS011;46103;52.076;113.488;2022-09-09T04:38:19;26.50;;;8.88;;
60241;SDS011;46103;52.076;113.488;2022-09-09T04:41:25;26.95;;;8.57;;
60241;SDS011;46103;52.076;113.488;2022-09-09T04:44:29;27.42;;;8.75;;
60241;SDS011;46103;52.076;113.488;2022-09-09T04:47:33;21.90;;;8.20;;
60241;SDS011;46103;52.076;113.488;2022-09-09T04:50:38;24.88;;;7.82;;
60241;SDS011;46103;52.076;113.488;2022-09-09T04:53:46;28.83;;;8.32;;
60241;SDS011;46103;52.076;113.488;2022-09-09T04:56:51;16.98;;;7.93;;
60241;SDS011;46103;52.076;113.488;2022-09-09T04:59:55;19.05;;;7.20;;
60241;SDS011;46103;52.076;113.488;2022-09-09T05:03:02;19.35;;;6.93;;
60241;SDS011;46103;52.076;113.488;2022-09-09T05:06:09;14.18;;;6.35;;
60241;SDS011;46103;52.076;113.488;2022-09-09T05:12:19;15.60;;;6.93;;
60241;SDS011;46103;52.076;113.488;2022-09-09T05:15:25;19.40;;;7.37;;
60241;SDS011;46103;52.076;113.488;2022-09-09T05:18:30;17.67;;;6.70;;
60241;SDS011;46103;52.076;113.488;2022-09-09T05:21:34;12.25;;;6.20;;
60241;SDS011;46103;52.076;113.488;2022-09-09T05:24:38;13.88;;;6.28;;
60241;SDS011;46103;52.076;113.488;2022-09-09T05:27:41;15.25;;;6.30;;
60241;SDS011;46103;52.076;113.488;2022-09-09T05:30:45;12.23;;;6.57;;
60241;SDS011;46103;52.076;113.488;2022-09-09T05:33:48;11.13;;;6.22;;
60241;SDS011;46103;52.076;113.488;2022-09-09T05:36:53;16.63;;;6.05;;
60241;SDS011;46103;52.076;113.488;2022-09-09T05:39:58;17.85;;;6.20;;
60241;SDS011;46103;52.076;113.488;2022-09-09T05:43:03;14.30;;;5.53;;
60241;SDS011;46103;52.076;113.488;2022-09-09T05:46:08;12.23;;;5.80;;
60241;SDS011;46103;52.076;113.488;2022-09-09T05:49:17;10.75;;;5.40;;
60241;SDS011;46103;52.076;113.488;2022-09-09T05:52:21;11.93;;;5.53;;
60241;SDS011;46103;52.076;113.488;2022-09-09T05:55:27;11.57;;;5.15;;
60241;SDS011;46103;52.076;113.488;2022-09-09T05:58:34;8.70;;;5.30;;
60241;SDS011;46103;52.076;113.488;2022-09-09T06:01:40;10.50;;;6.10;;
60241;SDS011;46103;52.076;113.488;2022-09-09T06:04:52;9.85;;;5.95;;
60241;SDS011;46103;52.076;113.488;2022-09-09T06:08:01;14.68;;;6.13;;
60241;SDS011;46103;52.076;113.488;2022-09-09T06:11:07;10.85;;;5.72;;
60241;SDS011;46103;52.076;113.488;2022-09-09T06:14:15;17.70;;;6.20;;
60241;SDS011;46103;52.076;113.488;2022-09-09T06:17:22;10.98;;;6.18;;
60241;SDS011;46103;52.076;113.488;2022-09-09T06:20:26;11.73;;;5.70;;
60241;SDS011;46103;52.076;113.488;2022-09-09T06:23:33;10.02;;;5.45;;
60241;SDS011;46103;52.076;113.488;2022-09-09T06:26:40;9.63;;;5.70;;
60241;SDS011;46103;52.076;113.488;2022-09-09T06:29:52;14.45;;;5.78;;
60241;SDS011;46103;52.076;113.488;2022-09-09T06:32:56;10.70;;;5.70;;
60241;SDS011;46103;52.076;113.488;2022-09-09T06:36:01;17.30;;;6.18;;
60241;SDS011;46103;52.076;113.488;2022-09-09T06:39:09;12.80;;;6.20;;
60241;SDS011;46103;52.076;113.488;2022-09-09T06:42:17;15.35;;;5.95;;
60241;SDS011;46103;52.076;113.488;2022-09-09T06:45:31;18.92;;;7.18;;
60241;SDS011;46103;52.076;113.488;2022-09-09T06:48:35;10.02;;;5.88;;
60241;SDS011;46103;52.076;113.488;2022-09-09T06:51:45;11.73;;;6.55;;
60241;SDS011;46103;52.076;113.488;2022-09-09T06:54:50;16.02;;;6.00;;
60241;SDS011;46103;52.076;113.488;2022-09-09T06:57:54;10.20;;;5.85;;
60241;SDS011;46103;52.076;113.488;2022-09-09T07:01:06;13.40;;;6.22;;
60241;SDS011;46103;52.076;113.488;2022-09-09T07:04:11;14.50;;;6.15;;
60241;SDS011;46103;52.076;113.488;2022-09-09T07:07:18;12.55;;;5.93;;
60241;SDS011;46103;52.076;113.488;2022-09-09T07:10:23;14.35;;;5.93;;
60241;SDS011;46103;52.076;113.488;2022-09-09T07:13:27;10.43;;;5.50;;
60241;SDS011;46103;52.076;113.488;2022-09-09T07:16:31;8.70;;;5.40;;
60241;SDS011;46103;52.076;113.488;2022-09-09T07:19:36;9.73;;;5.38;;
60241;SDS011;46103;52.076;113.488;2022-09-09T07:22:41;10.65;;;5.05;;
60241;SDS011;46103;52.076;113.488;2022-09-09T07:25:45;12.10;;;4.95;;
60241;SDS011;46103;52.076;113.488;2022-09-09T07:28:51;12.25;;;4.60;;
60241;SDS011;46103;52.076;113.488;2022-09-09T07:35:07;15.85;;;5.45;;
60241;SDS011;46103;52.076;113.488;2022-09-09T07:38:10;9.85;;;4.88;;
60241;SDS011;46103;52.076;113.488;2022-09-09T07:41:17;12.55;;;4.65;;
60241;SDS011;46103;52.076;113.488;2022-09-09T07:44:24;13.40;;;4.85;;
60241;SDS011;46103;52.076;113.488;2022-09-09T07:47:43;9.23;;;4.90;;
60241;SDS011;46103;52.076;113.488;2022-09-09T07:50:47;15.38;;;6.05;;
60241;SDS011;46103;52.076;113.488;2022-09-09T07:53:52;9.38;;;4.50;;
60241;SDS011;46103;52.076;113.488;2022-09-09T07:56:57;7.82;;;4.03;;
60241;SDS011;46103;52.076;113.488;2022-09-09T08:00:04;8.77;;;4.15;;
60241;SDS011;46103;52.076;113.488;2022-09-09T08:03:15;10.00;;;4.53;;
60241;SDS011;46103;52.076;113.488;2022-09-09T08:06:19;16.30;;;4.93;;
60241;SDS011;46103;52.076;113.488;2022-09-09T08:09:24;10.00;;;3.90;;
60241;SDS011;46103;52.076;113.488;2022-09-09T08:13:00;10.00;;;4.22;;
60241;SDS011;46103;52.076;113.488;2022-09-09T08:16:28;6.18;;;3.92;;
60241;SDS011;46103;52.076;113.488;2022-09-09T08:19:34;8.68;;;4.00;;
60241;SDS011;46103;52.076;113.488;2022-09-09T08:22:44;10.73;;;4.20;;
60241;SDS011;46103;52.076;113.488;2022-09-09T08:25:48;10.88;;;3.85;;
60241;SDS011;46103;52.076;113.488;2022-09-09T08:31:59;7.45;;;4.47;;
60241;SDS011;46103;52.076;113.488;2022-09-09T08:35:05;6.00;;;4.00;;
60241;SDS011;46103;52.076;113.488;2022-09-09T08:38:10;14.35;;;4.22;;
60241;SDS011;46103;52.076;113.488;2022-09-09T08:44:57;12.88;;;4.18;;
60241;SDS011;46103;52.076;113.488;2022-09-09T08:48:41;6.50;;;3.97;;
60241;SDS011;46103;52.076;113.488;2022-09-09T08:52:08;11.55;;;3.67;;
60241;SDS011;46103;52.076;113.488;2022-09-09T08:58:49;7.43;;;3.53;;
60241;SDS011;46103;52.076;113.488;2022-09-09T09:02:23;12.40;;;4.78;;
60241;SDS011;46103;52.076;113.488;2022-09-09T09:05:47;11.65;;;4.80;;
60241;SDS011;46103;52.076;113.488;2022-09-09T09:12:12;12.00;;;4.75;;
60241;SDS011;46103;52.076;113.488;2022-09-09T09:15:27;14.60;;;5.53;;
60241;SDS011;46103;52.076;113.488;2022-09-09T09:18:41;9.95;;;4.30;;
60241;SDS011;46103;52.076;113.488;2022-09-09T09:21:48;10.63;;;4.50;;
60241;SDS011;46103;52.076;113.488;2022-09-09T09:25:10;10.85;;;4.10;;
60241;SDS011;46103;52.076;113.488;2022-09-09T09:28:25;11.45;;;3.97;;
60241;SDS011;46103;52.076;113.488;2022-09-09T09:31:37;6.30;;;3.80;;
60241;SDS011;46103;52.076;113.488;2022-09-09T09:34:41;6.13;;;3.90;;
60241;SDS011;46103;52.076;113.488;2022-09-09T09:37:45;11.35;;;3.92;;
60241;SDS011;46103;52.076;113.488;2022-09-09T09:41:09;19.27;;;5.00;;
60241;SDS011;46103;52.076;113.488;2022-09-09T09:44:23;13.88;;;4.97;;
60241;SDS011;46103;52.076;113.488;2022-09-09T09:47:38;16.90;;;4.85;;
60241;SDS011;46103;52.076;113.488;2022-09-09T09:50:53;11.68;;;4.88;;
60241;SDS011;46103;52.076;113.488;2022-09-09T09:54:49;23.75;;;6.10;;
60241;SDS011;46103;52.076;113.488;2022-09-09T09:57:40;13.90;;;6.03;;
60241;SDS011;46103;52.076;113.488;2022-09-09T10:00:49;14.70;;;5.90;;
60241;SDS011;46103;52.076;113.488;2022-09-09T10:03:58;14.25;;;6.60;;
60241;SDS011;46103;52.076;113.488;2022-09-09T10:07:21;16.83;;;8.25;;
60241;SDS011;46103;52.076;113.488;2022-09-09T10:10:26;15.32;;;8.45;;
60241;SDS011;46103;52.076;113.488;2022-09-09T10:34:43;24.13;;;9.70;;
60241;SDS011;46103;52.076;113.488;2022-09-09T10:44:45;19.35;;;7.55;;
60241;SDS011;46103;52.076;113.488;2022-09-09T10:48:39;13.52;;;7.32;;
60241;SDS011;46103;52.076;113.488;2022-09-09T10:52:03;13.07;;;6.45;;
60241;SDS011;46103;52.076;113.488;2022-09-09T10:55:16;8.57;;;6.15;;
60241;SDS011;46103;52.076;113.488;2022-09-09T10:58:25;17.73;;;6.50;;
60241;SDS011;46103;52.076;113.488;2022-09-09T11:08:24;14.68;;;6.75;;
60241;SDS011;46103;52.076;113.488;2022-09-09T11:11:39;13.23;;;6.57;;
60241;SDS011;46103;52.076;113.488;2022-09-09T11:14:57;12.70;;;7.10;;
60241;SDS011;46103;52.076;113.488;2022-09-09T11:18:10;12.48;;;6.72;;
60241;SDS011;46103;52.076;113.488;2022-09-09T11:21:21;21.65;;;7.97;;
60241;SDS011;46103;52.076;113.488;2022-09-09T11:24:37;15.27;;;7.10;;
60241;SDS011;46103;52.076;113.488;2022-09-09T11:31:33;13.95;;;6.20;;
60241;SDS011;46103;52.076;113.488;2022-09-09T11:34:44;12.57;;;6.47;;
60241;SDS011;46103;52.076;113.488;2022-09-09T11:38:03;15.90;;;8.00;;
60241;SDS011;46103;52.076;113.488;2022-09-09T11:41:19;24.13;;;11.60;;
60241;SDS011;46103;52.076;113.488;2022-09-09T11:44:27;36.35;;;12.45;;
60241;SDS011;46103;52.076;113.488;2022-09-09T11:47:33;27.13;;;11.25;;
60241;SDS011;46103;52.076;113.488;2022-09-09T11:50:36;24.85;;;10.50;;
60241;SDS011;46103;52.076;113.488;2022-09-09T11:53:47;42.63;;;17.58;;
60241;SDS011;46103;52.076;113.488;2022-09-09T11:56:55;38.92;;;12.38;;
60241;SDS011;46103;52.076;113.488;2022-09-09T12:00:00;17.65;;;8.13;;
60241;SDS011;46103;52.076;113.488;2022-09-09T12:06:44;20.88;;;8.45;;
60241;SDS011;46103;52.076;113.488;2022-09-09T12:13:17;27.20;;;9.43;;
60241;SDS011;46103;52.076;113.488;2022-09-09T12:16:33;21.75;;;9.43;;
60241;SDS011;46103;52.076;113.488;2022-09-09T12:19:44;25.92;;;11.73;;
60241;SDS011;46103;52.076;113.488;2022-09-09T12:30:10;22.95;;;11.15;;
60241;SDS011;46103;52.076;113.488;2022-09-09T12:33:18;29.52;;;11.02;;
60241;SDS011;46103;52.076;113.488;2022-09-09T12:36:23;25.30;;;9.48;;
60241;SDS011;46103;52.076;113.488;2022-09-09T12:39:37;31.05;;;12.35;;
60241;SDS011;46103;52.076;113.488;2022-09-09T12:42:48;26.40;;;12.73;;
60241;SDS011;46103;52.076;113.488;2022-09-09T12:45:55;33.00;;;13.02;;
60241;SDS011;46103;52.076;113.488;2022-09-09T12:49:03;30.65;;;12.98;;
60241;SDS011;46103;52.076;113.488;2022-09-09T12:52:15;24.83;;;11.20;;
60241;SDS011;46103;52.076;113.488;2022-09-09T12:55:27;40.83;;;15.40;;
60241;SDS011;46103;52.076;113.488;2022-09-09T12:58:33;36.10;;;15.50;;
60241;SDS011;46103;52.076;113.488;2022-09-09T13:01:39;31.15;;;13.07;;
60241;SDS011;46103;52.076;113.488;2022-09-09T13:04:43;32.55;;;12.88;;
60241;SDS011;46103;52.076;113.488;2022-09-09T13:07:50;33.67;;;14.82;;
60241;SDS011;46103;52.076;113.488;2022-09-09T13:10:57;18.50;;;12.13;;
60241;SDS011;46103;52.076;113.488;2022-09-09T13:14:05;24.48;;;11.35;;
60241;SDS011;46103;52.076;113.488;2022-09-09T13:17:17;26.48;;;12.48;;
60241;SDS011;46103;52.076;113.488;2022-09-09T13:20:26;26.85;;;12.13;;
60241;SDS011;46103;52.076;113.488;2022-09-09T13:23:32;26.67;;;10.73;;
60241;SDS011;46103;52.076;113.488;2022-09-09T13:26:37;27.23;;;10.07;;
60241;SDS011;46103;52.076;113.488;2022-09-09T13:29:50;22.40;;;10.82;;
60241;SDS011;46103;52.076;113.488;2022-09-09T13:36:18;18.00;;;9.55;;
60241;SDS011;46103;52.076;113.488;2022-09-09T13:39:34;22.73;;;10.33;;
60241;SDS011;46103;52.076;113.488;2022-09-09T13:42:40;24.75;;;17.73;;
60241;SDS011;46103;52.076;113.488;2022-09-09T13:45:52;15.48;;;8.75;;
60241;SDS011;46103;52.076;113.488;2022-09-09T13:49:19;22.75;;;12.57;;
60241;SDS011;46103;52.076;113.488;2022-09-09T13:52:24;17.80;;;9.63;;
60241;SDS011;46103;52.076;113.488;2022-09-09T13:55:33;17.67;;;8.93;;
60241;SDS011;46103;52.076;113.488;2022-09-09T13:58:39;22.83;;;10.82;;
60241;SDS011;46103;52.076;113.488;2022-09-09T14:01:43;28.08;;;11.75;;
60241;SDS011;46103;52.076;113.488;2022-09-09T14:04:47;35.05;;;12.13;;
60241;SDS011;46103;52.076;113.488;2022-09-09T14:07:54;24.77;;;11.95;;
60241;SDS011;46103;52.076;113.488;2022-09-09T14:10:57;25.33;;;11.32;;
60241;SDS011;46103;52.076;113.488;2022-09-09T14:14:02;34.22;;;17.75;;
60241;SDS011;46103;52.076;113.488;2022-09-09T14:17:05;32.03;;;15.82;;
60241;SDS011;46103;52.076;113.488;2022-09-09T14:20:09;32.40;;;17.50;;
60241;SDS011;46103;52.076;113.488;2022-09-09T14:23:15;36.70;;;18.30;;
60241;SDS011;46103;52.076;113.488;2022-09-09T14:26:21;34.53;;;17.85;;
60241;SDS011;46103;52.076;113.488;2022-09-09T14:29:24;37.90;;;18.88;;
60241;SDS011;46103;52.076;113.488;2022-09-09T14:32:29;33.25;;;15.35;;
60241;SDS011;46103;52.076;113.488;2022-09-09T14:35:32;25.52;;;12.20;;
60241;SDS011;46103;52.076;113.488;2022-09-09T14:38:37;35.45;;;20.20;;
60241;SDS011;46103;52.076;113.488;2022-09-09T14:41:41;28.13;;;13.25;;
60241;SDS011;46103;52.076;113.488;2022-09-09T14:44:45;25.33;;;12.82;;
60241;SDS011;46103;52.076;113.488;2022-09-09T14:47:49;26.67;;;12.13;;
60241;SDS011;46103;52.076;113.488;2022-09-09T14:50:54;26.50;;;11.82;;
60241;SDS011;46103;52.076;113.488;2022-09-09T14:53:58;20.92;;;11.38;;
60241;SDS011;46103;52.076;113.488;2022-09-09T14:57:03;23.77;;;10.50;;
60241;SDS011;46103;52.076;113.488;2022-09-09T15:00:07;26.38;;;10.35;;
60241;SDS011;46103;52.076;113.488;2022-09-09T15:03:13;21.20;;;10.60;;
60241;SDS011;46103;52.076;113.488;2022-09-09T15:06:15;16.88;;;10.13;;
60241;SDS011;46103;52.076;113.488;2022-09-09T15:09:19;22.00;;;10.35;;
60241;SDS011;46103;52.076;113.488;2022-09-09T15:12:22;21.73;;;8.80;;
60241;SDS011;46103;52.076;113.488;2022-09-09T15:15:27;21.50;;;10.48;;
60241;SDS011;46103;52.076;113.488;2022-09-09T15:18:31;20.48;;;9.40;;
60241;SDS011;46103;52.076;113.488;2022-09-09T15:21:35;16.20;;;8.45;;
60241;SDS011;46103;52.076;113.488;2022-09-09T15:24:40;13.93;;;8.98;;
60241;SDS011;46103;52.076;113.488;2022-09-09T15:27:43;23.38;;;9.90;;
60241;SDS011;46103;52.076;113.488;2022-09-09T15:30:50;17.90;;;9.93;;
60241;SDS011;46103;52.076;113.488;2022-09-09T15:34:02;16.80;;;9.95;;
60241;SDS011;46103;52.076;113.488;2022-09-09T15:37:09;25.27;;;11.80;;
60241;SDS011;46103;52.076;113.488;2022-09-09T15:40:16;23.33;;;11.80;;
60241;SDS011;46103;52.076;113.488;2022-09-09T15:43:19;27.75;;;13.07;;
60241;SDS011;46103;52.076;113.488;2022-09-09T15:46:25;20.27;;;10.88;;
60241;SDS011;46103;52.076;113.488;2022-09-09T15:49:31;23.02;;;14.02;;
60241;SDS011;46103;52.076;113.488;2022-09-09T15:52:34;18.80;;;11.05;;
60241;SDS011;46103;52.076;113.488;2022-09-09T15:55:37;17.60;;;9.98;;
60241;SDS011;46103;52.076;113.488;2022-09-09T15:58:41;27.27;;;13.90;;
60241;SDS011;46103;52.076;113.488;2022-09-09T16:01:46;16.58;;;10.27;;
60241;SDS011;46103;52.076;113.488;2022-09-09T16:04:49;25.30;;;10.95;;
60241;SDS011;46103;52.076;113.488;2022-09-09T16:07:53;24.23;;;13.57;;
60241;SDS011;46103;52.076;113.488;2022-09-09T16:11:03;25.77;;;13.07;;
60241;SDS011;46103;52.076;113.488;2022-09-09T16:14:14;23.35;;;12.18;;
60241;SDS011;46103;52.076;113.488;2022-09-09T16:17:20;20.88;;;12.07;;
60241;SDS011;46103;52.076;113.488;2022-09-09T16:20:23;27.45;;;12.32;;
60241;SDS011;46103;52.076;113.488;2022-09-09T16:23:28;22.35;;;11.70;;
60241;SDS011;46103;52.076;113.488;2022-09-09T16:26:32;25.75;;;14.15;;
60241;SDS011;46103;52.076;113.488;2022-09-09T16:29:37;32.30;;;17.33;;
60241;SDS011;46103;52.076;113.488;2022-09-09T16:32:40;29.02;;;15.38;;
60241;SDS011;46103;52.076;113.488;2022-09-09T16:35:44;29.75;;;16.35;;
60241;SDS011;46103;52.076;113.488;2022-09-09T16:38:48;35.17;;;14.73;;
60241;SDS011;46103;52.076;113.488;2022-09-09T16:41:57;35.15;;;13.98;;
60241;SDS011;46103;52.076;113.488;2022-09-09T16:45:00;25.65;;;14.00;;
60241;SDS011;46103;52.076;113.488;2022-09-09T16:48:03;39.97;;;22.80;;
60241;SDS011;46103;52.076;113.488;2022-09-09T16:51:07;35.95;;;18.02;;
60241;SDS011;46103;52.076;113.488;2022-09-09T16:54:16;29.10;;;15.02;;
60241;SDS011;46103;52.076;113.488;2022-09-09T16:57:21;23.42;;;13.80;;
60241;SDS011;46103;52.076;113.488;2022-09-09T17:00:24;25.58;;;14.93;;
60241;SDS011;46103;52.076;113.488;2022-09-09T17:03:30;24.30;;;13.98;;
60241;SDS011;46103;52.076;113.488;2022-09-09T17:06:35;25.33;;;13.02;;
60241;SDS011;46103;52.076;113.488;2022-09-09T17:09:43;23.70;;;12.30;;
60241;SDS011;46103;52.076;113.488;2022-09-09T17:12:48;26.23;;;14.20;;
60241;SDS011;46103;52.076;113.488;2022-09-09T17:15:51;26.75;;;13.73;;
60241;SDS011;46103;52.076;113.488;2022-09-09T17:18:55;24.60;;;14.82;;
60241;SDS011;46103;52.076;113.488;2022-09-09T17:21:59;28.77;;;15.20;;
60241;SDS011;46103;52.076;113.488;2022-09-09T17:25:19;29.42;;;14.82;;
60241;SDS011;46103;52.076;113.488;2022-09-09T17:28:26;31.63;;;15.55;;
60241;SDS011;46103;52.076;113.488;2022-09-09T17:31:33;27.17;;;15.18;;
60241;SDS011;46103;52.076;113.488;2022-09-09T17:34:37;30.33;;;16.88;;
60241;SDS011;46103;52.076;113.488;2022-09-09T17:37:41;27.67;;;16.83;;
60241;SDS011;46103;52.076;113.488;2022-09-09T17:40:45;32.05;;;16.08;;
60241;SDS011;46103;52.076;113.488;2022-09-09T17:43:49;28.55;;;15.98;;
60241;SDS011;46103;52.076;113.488;2022-09-09T17:46:53;25.15;;;15.30;;
60241;SDS011;46103;52.076;113.488;2022-09-09T17:49:59;27.20;;;13.85;;
60241;SDS011;46103;52.076;113.488;2022-09-09T17:53:02;27.75;;;12.77;;
60241;SDS011;46103;52.076;113.488;2022-09-09T17:56:08;22.13;;;13.75;;
60241;SDS011;46103;52.076;113.488;2022-09-09T17:59:14;24.10;;;13.07;;
60241;SDS011;46103;52.076;113.488;2022-09-09T18:02:18;23.05;;;13.82;;
60241;SDS011;46103;52.076;113.488;2022-09-09T18:05:22;22.13;;;12.32;;
60241;SDS011;46103;52.076;113.488;2022-09-09T18:08:26;20.02;;;12.30;;
60241;SDS011;46103;52.076;113.488;2022-09-09T18:11:38;17.38;;;10.82;;
60241;SDS011;46103;52.076;113.488;2022-09-09T18:14:45;22.35;;;11.52;;
60241;SDS011;46103;52.076;113.488;2022-09-09T18:17:50;26.83;;;11.65;;
60241;SDS011;46103;52.076;113.488;2022-09-09T18:21:00;23.83;;;11.48;;
60241;SDS011;46103;52.076;113.488;2022-09-09T18:24:08;20.00;;;12.13;;
60241;SDS011;46103;52.076;113.488;2022-09-09T18:27:13;23.40;;;12.77;;
60241;SDS011;46103;52.076;113.488;2022-09-09T18:30:17;23.15;;;14.10;;
60241;SDS011;46103;52.076;113.488;2022-09-09T18:33:21;24.23;;;13.88;;
60241;SDS011;46103;52.076;113.488;2022-09-09T18:36:27;21.73;;;12.75;;
60241;SDS011;46103;52.076;113.488;2022-09-09T18:39:35;20.10;;;12.20;;
60241;SDS011;46103;52.076;113.488;2022-09-09T18:42:39;22.40;;;13.02;;
60241;SDS011;46103;52.076;113.488;2022-09-09T18:45:44;25.23;;;13.25;;
60241;SDS011;46103;52.076;113.488;2022-09-09T18:48:48;24.40;;;12.88;;
60241;SDS011;46103;52.076;113.488;2022-09-09T18:51:53;26.02;;;13.05;;
60241;SDS011;46103;52.076;113.488;2022-09-09T18:54:58;20.17;;;12.07;;
60241;SDS011;46103;52.076;113.488;2022-09-09T18:58:02;21.75;;;13.52;;
60241;SDS011;46103;52.076;113.488;2022-09-09T19:01:07;21.13;;;12.90;;
60241;SDS011;46103;52.076;113.488;2022-09-09T19:04:14;25.50;;;13.88;;
60241;SDS011;46103;52.076;113.488;2022-09-09T19:07:18;21.33;;;13.13;;
60241;SDS011;46103;52.076;113.488;2022-09-09T19:10:23;19.45;;;12.63;;
60241;SDS011;46103;52.076;113.488;2022-09-09T19:13:27;18.98;;;11.77;;
60241;SDS011;46103;52.076;113.488;2022-09-09T19:16:32;18.00;;;11.00;;
60241;SDS011;46103;52.076;113.488;2022-09-09T19:19:37;21.85;;;11.65;;
60241;SDS011;46103;52.076;113.488;2022-09-09T19:22:45;24.50;;;13.80;;
60241;SDS011;46103;52.076;113.488;2022-09-09T19:25:49;21.30;;;12.70;;
60241;SDS011;46103;52.076;113.488;2022-09-09T19:28:52;22.77;;;12.27;;
60241;SDS011;46103;52.076;113.488;2022-09-09T19:31:56;18.85;;;11.30;;
60241;SDS011;46103;52.076;113.488;2022-09-09T19:35:21;19.67;;;12.27;;
60241;SDS011;46103;52.076;113.488;2022-09-09T19:38:25;15.70;;;9.15;;
60241;SDS011;46103;52.076;113.488;2022-09-09T19:41:29;15.10;;;9.38;;
60241;SDS011;46103;52.076;113.488;2022-09-09T19:44:35;14.55;;;7.72;;
60241;SDS011;46103;52.076;113.488;2022-09-09T19:47:39;12.32;;;8.18;;
60241;SDS011;46103;52.076;113.488;2022-09-09T19:50:43;19.80;;;9.43;;
60241;SDS011;46103;52.076;113.488;2022-09-09T19:53:48;14.73;;;9.77;;
60241;SDS011;46103;52.076;113.488;2022-09-09T19:56:58;18.08;;;10.15;;
60241;SDS011;46103;52.076;113.488;2022-09-09T20:00:02;13.40;;;8.45;;
60241;SDS011;46103;52.076;113.488;2022-09-09T20:03:12;20.08;;;10.30;;